Time;durP1;ratioP1;P1;durP2;ratioP2;P2;SDS_P1;SDS_P2;PMS_P1;PMS_P2;Temp;Humidity;BMP_temperature;BMP_pressure;BME280_temperature;BME280_humidity;BME280_pressure;Samples;Min_cycle;Max_cycle;Signal;HPM_P1;HPM_P2
2022/07/11 00:02:23;;;;;;;3.28;1.52;;;;;;;17.33;78.39;102508.03;5072488;28;20278;-78
2022/07/11 00:04:49;;;;;;;2.28;1.50;;;;;;;17.32;78.64;102510.75;5075706;28;20052;-79
2022/07/11 00:07:15;;;;;;;4.18;1.77;;;;;;;17.31;78.40;102504.59;5061394;28;20024;-78
2022/07/11 00:09:41;;;;;;;3.65;1.67;;;;;;;17.31;78.45;102501.09;5082745;28;20051;-77
2022/07/11 00:12:08;;;;;;;4.60;2.00;;;;;;;17.30;78.66;102497.59;5082364;28;20044;-78
2022/07/11 00:14:34;;;;;;;3.65;1.77;;;;;;;17.31;78.68;102504.59;5082223;28;20059;-78
2022/07/11 00:16:59;;;;;;;2.60;1.70;;;;;;;17.30;78.98;102494.06;5081000;28;20019;-78
2022/07/11 00:19:25;;;;;;;4.72;1.90;;;;;;;17.29;78.76;102501.16;5050892;28;20069;-78
2022/07/11 00:21:51;;;;;;;2.88;2.10;;;;;;;17.29;79.01;102495.00;5082799;28;20291;-78
2022/07/11 00:24:19;;;;;;;2.75;1.40;;;;;;;17.29;78.94;102495.00;5083141;28;20036;-78
2022/07/11 00:26:46;;;;;;;6.40;1.97;;;;;;;17.29;79.24;102495.84;5093838;28;20213;-78
2022/07/11 00:29:11;;;;;;;2.17;1.60;;;;;;;17.29;79.38;102487.06;5080550;28;20037;-77
2022/07/11 00:31:37;;;;;;;3.60;2.13;;;;;;;17.27;79.54;102490.63;5077093;28;20044;-78
2022/07/11 00:34:02;;;;;;;4.40;2.28;;;;;;;17.28;79.41;102488.81;5083493;28;20082;-78
2022/07/11 00:36:27;;;;;;;2.17;1.45;;;;;;;17.27;79.53;102490.63;5078372;28;20047;-78
2022/07/11 00:38:53;;;;;;;2.47;1.73;;;;;;;17.29;79.55;102492.38;5082849;28;20357;-78
2022/07/11 00:41:18;;;;;;;2.88;1.50;;;;;;;17.29;79.27;102490.56;5100482;28;20024;-78
2022/07/11 00:43:52;;;;;;;4.53;1.60;;;;;;;17.29;79.21;102487.91;5100481;28;20044;-78
2022/07/11 00:46:17;;;;;;;4.07;1.92;;;;;;;17.30;79.22;102494.94;5100664;28;20036;-78
2022/07/11 00:48:42;;;;;;;5.38;1.67;;;;;;;17.31;78.94;102493.16;5082068;28;20054;-77
2022/07/11 00:51:08;;;;;;;2.42;1.40;;;;;;;17.31;79.28;102488.72;5065312;28;20336;-77
2022/07/11 00:53:34;;;;;;;2.58;1.48;;;;;;;17.30;79.38;102489.66;5079965;28;20040;-77
2022/07/11 00:56:00;;;;;;;3.38;1.58;;;;;;;17.31;79.55;102487.84;5086873;28;20032;-77
2022/07/11 00:58:26;;;;;;;3.58;1.50;;;;;;;17.31;79.71;102487.84;5100602;28;20282;-77
2022/07/11 01:00:52;;;;;;;4.90;1.65;;;;;;;17.31;79.89;102480.75;5099914;28;20040;-77
2022/07/11 01:03:17;;;;;;;2.22;1.20;;;;;;;17.31;79.94;102491.34;5082241;28;20028;-77
2022/07/11 01:05:42;;;;;;;2.10;1.45;;;;;;;17.31;79.94;102493.16;5082214;28;20031;-77
2022/07/11 01:08:08;;;;;;;4.95;1.80;;;;;;;17.30;80.14;102497.59;5099806;28;20044;-77
2022/07/11 01:10:34;;;;;;;4.32;1.40;;;;;;;17.31;80.12;102498.44;5081743;28;20032;-77
2022/07/11 01:12:59;;;;;;;3.35;1.40;;;;;;;17.29;80.42;102495.84;5099666;28;20255;-77
2022/07/11 01:15:25;;;;;;;3.85;1.60;;;;;;;17.30;80.40;102504.66;5081716;28;20059;-77
2022/07/11 01:17:53;;;;;;;2.97;1.63;;;;;;;17.28;80.39;102496.78;5080035;28;20089;-77
2022/07/11 01:20:25;;;;;;;2.45;1.40;;;;;;;17.29;80.13;102493.22;5100005;28;20035;-78
2022/07/11 01:22:57;;;;;;;4.50;1.58;;;;;;;17.28;80.52;102488.81;5077113;28;20024;-77
2022/07/11 01:25:32;;;;;;;3.53;1.25;;;;;;;17.29;80.43;102481.78;5061562;28;20044;-78
2022/07/11 01:28:04;;;;;;;4.22;1.25;;;;;;;17.29;79.99;102489.72;5072637;28;20032;-77
2022/07/11 01:30:31;;;;;;;4.10;1.60;;;;;;;17.30;80.14;102492.31;5086489;28;20032;-77
2022/07/11 01:32:57;;;;;;;3.10;1.20;;;;;;;17.29;80.59;102485.28;5081438;28;20047;-78
2022/07/11 01:35:23;;;;;;;2.30;1.42;;;;;;;17.29;80.45;102498.50;5081779;28;20020;-79
2022/07/11 01:37:49;;;;;;;2.47;1.23;;;;;;;17.30;80.40;102488.78;5099273;28;20032;-79
2022/07/11 01:40:15;;;;;;;2.30;1.42;;;;;;;17.29;80.41;102487.91;5099215;28;20024;-79
2022/07/11 01:42:41;;;;;;;2.00;1.40;;;;;;;17.29;80.30;102487.91;5081361;28;20338;-79
2022/07/11 01:45:07;;;;;;;1.75;1.38;;;;;;;17.30;80.72;102481.72;5099506;28;20111;-79
2022/07/11 01:47:32;;;;;;;2.15;1.27;;;;;;;17.31;80.92;102491.34;5099389;28;20133;-78
2022/07/11 01:49:58;;;;;;;5.97;1.60;;;;;;;17.30;80.86;102489.66;5081178;28;20027;-78
2022/07/11 01:52:23;;;;;;;3.83;1.60;;;;;;;17.29;81.14;102487.91;5081194;28;20245;-78
2022/07/11 01:54:49;;;;;;;5.60;1.52;;;;;;;17.30;80.94;102488.78;5063502;28;20032;-78
2022/07/11 01:57:15;;;;;;;5.15;1.50;;;;;;;17.30;81.19;102480.81;5061781;28;20021;-79
2022/07/11 01:59:40;;;;;;;3.38;1.60;;;;;;;17.29;81.14;102482.63;5092612;28;20031;-78
2022/07/11 02:02:06;;;;;;;2.25;1.10;;;;;;;17.28;81.41;102483.53;5099150;28;20223;-79
2022/07/11 02:04:32;;;;;;;2.95;1.52;;;;;;;17.28;81.54;102480.88;5099649;28;20094;-78
2022/07/11 02:06:57;;;;;;;2.60;1.40;;;;;;;17.29;81.18;102479.13;5098679;28;20364;-78
2022/07/11 02:09:23;;;;;;;5.38;2.05;;;;;;;17.30;81.13;102484.34;5080703;28;20050;-78
2022/07/11 02:11:48;;;;;;;28.48;3.70;;;;;;;17.29;80.89;102479.97;5081085;28;20032;-78
2022/07/11 02:14:14;;;;;;;10.30;1.73;;;;;;;17.29;80.81;102477.31;5063978;28;20316;-79
2022/07/11 02:16:40;;;;;;;8.02;1.50;;;;;;;17.30;81.04;102481.72;5081182;28;20020;-78
2022/07/11 02:19:06;;;;;;;3.03;1.20;;;;;;;17.30;80.91;102467.59;5098775;28;20035;-78
2022/07/11 02:21:32;;;;;;;5.28;1.48;;;;;;;17.30;81.06;102475.53;5093889;28;20047;-78
2022/07/11 02:23:57;;;;;;;4.32;1.45;;;;;;;17.30;81.15;102471.13;5094752;28;20031;-78
2022/07/11 02:26:23;;;;;;;2.85;1.10;;;;;;;17.31;80.94;102474.63;5100259;28;20452;-76
2022/07/11 02:28:48;;;;;;;4.10;1.33;;;;;;;17.30;81.16;102465.81;5100433;28;20085;-75
2022/07/11 02:31:14;;;;;;;4.70;1.10;;;;;;;17.30;80.85;102471.13;5076624;28;20032;-75
2022/07/11 02:33:39;;;;;;;2.10;1.20;;;;;;;17.30;81.12;102476.41;5087158;28;20098;-78
2022/07/11 02:36:05;;;;;;;2.20;1.20;;;;;;;17.30;81.12;102473.78;5077159;28;20033;-78
2022/07/11 02:38:30;;;;;;;2.63;1.30;;;;;;;17.31;81.12;102477.28;5080613;28;20104;-79
2022/07/11 02:40:55;;;;;;;1.45;1.00;;;;;;;17.30;81.16;102476.41;5079878;28;20053;-79
2022/07/11 02:43:21;;;;;;;2.33;0.98;;;;;;;17.31;81.03;102478.13;5098158;28;20040;-79
2022/07/11 02:45:46;;;;;;;3.95;1.30;;;;;;;17.31;81.35;102471.97;5080270;28;20331;-79
2022/07/11 02:48:12;;;;;;;5.85;1.25;;;;;;;17.31;81.28;102474.63;5065861;28;20390;-79
2022/07/11 02:50:37;;;;;;;2.38;1.23;;;;;;;17.31;81.25;102478.13;5073638;28;20032;-79
2022/07/11 02:53:03;;;;;;;3.15;1.70;;;;;;;17.32;81.23;102477.22;5077324;28;20044;-79
2022/07/11 02:55:28;;;;;;;5.05;1.65;;;;;;;17.31;81.48;102474.63;5079995;28;20043;-79
2022/07/11 02:57:53;;;;;;;3.63;1.40;;;;;;;17.32;81.38;102476.31;5063004;28;20032;-79
2022/07/11 03:00:19;;;;;;;3.70;1.30;;;;;;;17.31;81.23;102474.63;5080556;28;20115;-79
2022/07/11 03:02:45;;;;;;;2.63;1.17;;;;;;;17.32;81.51;102481.63;5082308;28;20035;-79
2022/07/11 03:05:12;;;;;;;2.47;1.15;;;;;;;17.32;81.07;102471.03;5093179;28;20047;-79
2022/07/11 03:07:38;;;;;;;2.75;1.23;;;;;;;17.31;81.08;102470.19;5060471;28;20032;-79
2022/07/11 03:10:04;;;;;;;4.85;1.10;;;;;;;17.31;81.25;102466.69;5093714;28;20036;-78
2022/07/11 03:12:30;;;;;;;1.98;1.08;;;;;;;17.31;81.25;102474.63;5085543;28;20028;-78
2022/07/11 03:14:55;;;;;;;4.47;1.20;;;;;;;17.32;81.18;102477.22;5077998;28;20079;-78
2022/07/11 03:17:21;;;;;;;3.83;1.48;;;;;;;17.32;81.17;102468.38;5079199;28;20028;-78
2022/07/11 03:19:47;;;;;;;1.83;1.20;;;;;;;17.33;81.41;102472.75;5096961;28;20345;-79
2022/07/11 03:22:13;;;;;;;3.10;1.38;;;;;;;17.32;81.40;102473.66;5097189;28;20499;-78
2022/07/11 03:24:41;;;;;;;5.10;1.20;;;;;;;17.31;81.40;102470.19;5079445;28;20036;-79
2022/07/11 03:27:06;;;;;;;0.90;0.77;;;;;;;17.32;81.55;102476.31;5080178;28;20040;-78
2022/07/11 03:29:33;;;;;;;2.30;1.08;;;;;;;17.31;81.64;102478.13;5064938;28;20139;-78
2022/07/11 03:31:58;;;;;;;1.42;0.88;;;;;;;17.29;81.64;102472.03;5066130;28;20035;-79
2022/07/11 03:34:24;;;;;;;1.35;0.85;;;;;;;17.28;81.57;102475.59;5093996;28;20051;-79
2022/07/11 03:36:49;;;;;;;1.95;0.80;;;;;;;17.29;81.61;102481.78;5085053;28;20039;-79
2022/07/11 03:39:15;;;;;;;1.92;0.80;;;;;;;17.28;81.39;102475.59;5096989;28;20032;-79
2022/07/11 03:41:41;;;;;;;4.53;1.10;;;;;;;17.28;81.47;102480.88;5082622;28;20200;-78
2022/07/11 03:44:06;;;;;;;5.60;1.23;;;;;;;17.29;81.36;102479.97;5081979;28;20358;-78
2022/07/11 03:46:32;;;;;;;1.10;0.70;;;;;;;17.28;81.36;102472.94;5079820;28;20206;-79
2022/07/11 03:48:58;;;;;;;2.67;0.90;;;;;;;17.28;81.63;102478.25;5097609;28;20334;-78
2022/07/11 03:51:23;;;;;;;1.65;0.73;;;;;;;17.27;81.51;102469.44;5072574;28;20149;-78
2022/07/11 03:53:49;;;;;;;1.73;0.88;;;;;;;17.27;81.74;102474.75;5063123;28;20397;-78
2022/07/11 03:56:17;;;;;;;1.33;0.60;;;;;;;17.27;81.36;102473.88;5062521;28;20028;-78
2022/07/11 03:58:43;;;;;;;3.22;0.80;;;;;;;17.27;81.61;102479.19;5092964;28;20033;-78
2022/07/11 04:01:08;;;;;;;3.05;0.70;;;;;;;17.27;81.36;102474.75;5098072;28;20050;-78
2022/07/11 04:03:33;;;;;;;1.48;0.82;;;;;;;17.29;81.60;102476.47;5077797;28;20058;-78
2022/07/11 04:05:59;;;;;;;2.72;0.95;;;;;;;17.30;81.67;102483.47;5061679;28;20032;-78
2022/07/11 04:08:24;;;;;;;1.00;1.00;;;;;;;17.29;81.50;102482.63;5094862;28;20051;-78
2022/07/11 04:10:49;;;;;;;2.30;0.80;;;;;;;17.29;81.48;102477.31;5063682;28;20073;-78
2022/07/11 04:13:15;;;;;;;1.23;0.70;;;;;;;17.29;81.80;102481.78;5058092;28;20040;-78
2022/07/11 04:15:40;;;;;;;1.70;0.93;;;;;;;17.28;81.65;102480.88;5065797;28;20048;-78
2022/07/11 04:18:05;;;;;;;2.30;0.98;;;;;;;17.29;81.60;102484.41;5058373;28;20067;-78
2022/07/11 04:20:31;;;;;;;1.13;0.85;;;;;;;17.27;81.57;102485.34;5088833;28;20055;-78
2022/07/11 04:22:56;;;;;;;1.88;0.80;;;;;;;17.27;81.47;102484.47;5078419;28;20031;-78
2022/07/11 04:25:21;;;;;;;1.88;0.68;;;;;;;17.25;81.47;102481.88;5078213;28;20161;-78
2022/07/11 04:27:47;;;;;;;0.93;0.60;;;;;;;17.25;81.66;102488.97;5061330;28;20040;-78
2022/07/11 04:30:12;;;;;;;1.25;0.60;;;;;;;17.25;81.19;102488.97;5095600;28;20031;-78
2022/07/11 04:32:38;;;;;;;1.00;0.60;;;;;;;17.24;81.29;102488.09;5096211;28;20020;-78
2022/07/11 04:35:04;;;;;;;0.60;0.45;;;;;;;17.26;81.30;102486.28;5078543;28;20031;-77
2022/07/11 04:37:29;;;;;;;1.88;0.55;;;;;;;17.25;81.33;102481.03;5096529;28;20040;-78
2022/07/11 04:39:54;;;;;;;0.55;0.55;;;;;;;17.25;81.06;102473.94;5095033;28;20052;-77
2022/07/11 04:42:20;;;;;;;2.33;0.73;;;;;;;17.26;80.55;102474.81;5058859;28;20036;-77
2022/07/11 04:44:45;;;;;;;0.93;0.60;;;;;;;17.27;80.53;102477.38;5051469;28;20372;-77
2022/07/11 04:47:11;;;;;;;0.80;0.80;;;;;;;17.27;80.84;102474.75;5095969;28;20238;-77
2022/07/11 04:49:37;;;;;;;0.85;0.55;;;;;;;17.28;80.58;102480.88;5096223;28;20039;-78
2022/07/11 04:52:03;;;;;;;1.05;0.88;;;;;;;17.28;80.81;102483.53;5085046;28;20335;-77
2022/07/11 04:54:28;;;;;;;1.02;0.93;;;;;;;17.27;80.71;102473.88;5076511;28;20085;-78
2022/07/11 04:56:54;;;;;;;1.45;0.95;;;;;;;17.26;80.77;102470.38;5097420;28;20044;-77
2022/07/11 04:59:19;;;;;;;1.08;1.00;;;;;;;17.26;80.77;102478.34;5079353;28;20259;-78
2022/07/11 05:01:45;;;;;;;1.95;1.25;;;;;;;17.27;81.01;102487.13;5096814;28;20047;-77
2022/07/11 05:04:10;;;;;;;1.38;1.23;;;;;;;17.26;81.13;102494.22;5098305;28;20131;-78
2022/07/11 05:06:36;;;;;;;1.15;1.02;;;;;;;17.25;81.17;102487.19;5074205;28;20040;-77
2022/07/11 05:09:03;;;;;;;2.55;1.02;;;;;;;17.25;81.19;102495.13;5078853;28;20396;-77
2022/07/11 05:11:29;;;;;;;1.20;1.10;;;;;;;17.24;81.18;102490.75;5075088;28;20250;-77
2022/07/11 05:13:54;;;;;;;0.93;0.93;;;;;;;17.25;81.08;102492.47;5096238;28;20052;-77
2022/07/11 05:16:19;;;;;;;1.25;0.80;;;;;;;17.24;81.52;102492.53;5096679;28;20047;-77
2022/07/11 05:18:45;;;;;;;1.45;1.00;;;;;;;17.24;81.37;102500.47;5096989;28;20044;-77
2022/07/11 05:21:10;;;;;;;1.95;0.98;;;;;;;17.23;81.20;102501.44;5089955;28;20204;-77
2022/07/11 05:23:35;;;;;;;0.88;0.80;;;;;;;17.21;81.12;102493.53;5058507;28;20040;-77
2022/07/11 05:26:01;;;;;;;1.05;0.73;;;;;;;17.23;81.42;102512.03;5068936;28;20035;-77
2022/07/11 05:28:26;;;;;;;1.00;0.82;;;;;;;17.21;81.45;102514.72;5096118;28;20044;-78
2022/07/11 05:30:52;;;;;;;2.55;1.15;;;;;;;17.20;81.54;102522.72;5095799;28;20215;-78
2022/07/11 05:33:17;;;;;;;1.10;0.80;;;;;;;17.18;81.62;102521.94;5077179;28;20038;-78
2022/07/11 05:35:42;;;;;;;0.90;0.80;;;;;;;17.15;82.10;102522.06;5072397;28;20284;-77
2022/07/11 05:38:08;;;;;;;0.88;0.88;;;;;;;17.14;81.92;102520.34;5061463;28;20152;-78
2022/07/11 05:40:33;;;;;;;1.13;1.00;;;;;;;17.12;82.11;102522.19;5096851;28;20039;-78
2022/07/11 05:43:00;;;;;;;2.72;1.00;;;;;;;17.10;82.54;102519.63;5071680;28;20035;-77
2022/07/11 05:45:26;;;;;;;2.75;1.00;;;;;;;17.09;82.46;102520.53;5045137;28;20035;-78
2022/07/11 05:47:51;;;;;;;1.15;1.00;;;;;;;17.07;82.47;102528.53;5089430;28;20036;-78
2022/07/11 05:50:16;;;;;;;1.08;0.90;;;;;;;17.07;82.52;102525.03;5077336;28;20035;-78
2022/07/11 05:52:42;;;;;;;1.13;0.88;;;;;;;17.07;82.70;102528.53;5074846;28;20346;-77
2022/07/11 05:55:07;;;;;;;1.15;0.90;;;;;;;17.10;82.61;102532.84;5067026;28;20044;-78
2022/07/11 05:57:33;;;;;;;2.50;0.95;;;;;;;17.11;82.60;102528.41;5073488;28;20043;-77
2022/07/11 05:59:58;;;;;;;3.67;1.33;;;;;;;17.11;82.27;102521.31;5073694;28;20095;-78
2022/07/11 06:02:23;;;;;;;2.33;0.90;;;;;;;17.12;82.42;102524.81;5082617;28;20044;-77
2022/07/11 06:04:49;;;;;;;1.10;0.90;;;;;;;17.12;82.35;102528.34;5075073;28;20250;-78
2022/07/11 06:08:40;;;;;;;1.25;1.15;;;;;;;17.13;82.57;102526.56;5052210;28;20094;-78
2022/07/11 06:09:59;;;;;;;1.63;0.93;;;;;;;17.14;82.83;102525.66;5075015;28;20362;-78
2022/07/11 06:12:25;;;;;;;1.52;1.42;;;;;;;17.14;82.64;102528.28;5054023;28;20041;-78
2022/07/11 06:14:50;;;;;;;1.30;1.17;;;;;;;17.15;82.62;102522.06;5061199;28;20060;-78
2022/07/11 06:17:15;;;;;;;2.20;1.20;;;;;;;17.14;82.75;102520.34;5068670;28;20056;-78
2022/07/11 06:19:41;;;;;;;4.40;1.55;;;;;;;17.15;82.76;102512.31;5049624;28;20044;-78
2022/07/11 06:22:06;;;;;;;1.55;1.02;;;;;;;17.16;82.74;102513.19;5067226;28;20382;-77
2022/07/11 06:24:31;;;;;;;1.25;1.00;;;;;;;17.15;82.95;102507.03;5046463;28;20067;-78
2022/07/11 06:27:00;;;;;;;1.67;1.02;;;;;;;17.15;83.01;102504.38;5067721;28;20055;-78
2022/07/11 06:29:25;;;;;;;24.13;2.30;;;;;;;17.15;82.94;102503.53;5068955;28;20044;-78
2022/07/11 06:31:52;;;;;;;4.13;1.05;;;;;;;17.16;82.91;102494.66;5061057;28;20420;-78
2022/07/11 06:34:17;;;;;;;3.28;1.13;;;;;;;17.16;82.80;102499.97;5063702;28;20565;-78
2022/07/11 06:36:43;;;;;;;1.08;1.08;;;;;;;17.16;82.95;102500.81;5073575;28;20032;-78
2022/07/11 06:39:08;;;;;;;4.20;1.02;;;;;;;17.17;82.91;102497.25;5036141;28;20036;-78
2022/07/11 06:41:33;;;;;;;3.55;1.30;;;;;;;17.19;82.85;102491.88;5050431;28;20056;-78
2022/07/11 06:43:59;;;;;;;1.45;0.80;;;;;;;17.19;83.15;102502.47;5054351;28;20259;-77
2022/07/11 06:46:26;;;;;;;4.82;0.90;;;;;;;17.19;83.04;102506.00;5048279;28;20115;-78
2022/07/11 06:48:52;;;;;;;1.10;0.77;;;;;;;17.20;82.70;102504.19;5066388;28;20074;-78
2022/07/11 06:51:17;;;;;;;0.95;0.95;;;;;;;17.19;82.70;102513.94;5047982;28;20344;-77
2022/07/11 06:53:43;;;;;;;3.05;1.08;;;;;;;17.16;82.79;102511.41;5053700;28;20406;-78
2022/07/11 06:56:08;;;;;;;2.42;1.10;;;;;;;17.13;83.14;102519.47;5052382;28;20123;-78
2022/07/11 06:58:33;;;;;;;1.85;1.00;;;;;;;17.11;83.18;102520.47;5070528;28;20071;-77
2022/07/11 07:01:04;;;;;;;3.00;0.90;;;;;;;17.11;83.29;102518.69;5064055;28;20220;-78
2022/07/11 07:03:31;;;;;;;2.65;1.30;;;;;;;17.08;83.37;102517.03;5064206;28;20035;-78
2022/07/11 07:05:57;;;;;;;2.00;1.15;;;;;;;17.08;83.36;102514.38;5053639;28;20219;-78
2022/07/11 07:08:27;;;;;;;2.65;1.10;;;;;;;17.06;83.47;102518.88;5064840;28;20067;-77
2022/07/11 07:10:53;;;;;;;1.65;1.10;;;;;;;17.04;83.74;102525.16;5065571;28;20050;-78
2022/07/11 07:13:20;;;;;;;1.60;1.02;;;;;;;17.04;84.03;102523.34;5051313;28;20033;-78
2022/07/11 07:15:46;;;;;;;1.30;1.20;;;;;;;17.05;83.65;102527.72;5057622;28;20052;-78
2022/07/11 07:18:12;;;;;;;1.40;1.00;;;;;;;17.06;83.63;102533.88;5070056;28;20277;-78
2022/07/11 07:20:37;;;;;;;1.30;0.90;;;;;;;17.08;83.60;102538.19;5066958;28;20036;-78
2022/07/11 07:23:03;;;;;;;0.85;0.80;;;;;;;17.11;83.57;102533.69;5063269;28;20071;-78
2022/07/11 07:25:28;;;;;;;0.70;0.70;;;;;;;17.12;83.25;102533.66;5052011;28;20041;-78
2022/07/11 07:27:54;;;;;;;1.05;0.90;;;;;;;17.14;83.22;102525.66;5054614;28;20040;-78
2022/07/11 07:30:19;;;;;;;0.73;0.73;;;;;;;17.17;83.04;102534.31;5068828;28;20036;-78
2022/07/11 07:32:44;;;;;;;2.60;1.00;;;;;;;17.19;83.06;102536.88;5072705;28;20059;-78
2022/07/11 07:35:10;;;;;;;0.93;0.90;;;;;;;17.21;82.82;102532.41;5070318;28;20044;-78
2022/07/11 07:37:35;;;;;;;6.35;1.00;;;;;;;17.21;83.00;102535.06;5057670;28;20103;-77
2022/07/11 07:40:01;;;;;;;1.65;1.00;;;;;;;17.20;83.10;102535.97;5071977;28;20351;-78
2022/07/11 07:42:26;;;;;;;1.52;1.40;;;;;;;17.21;83.17;102532.41;5054115;28;20044;-78
2022/07/11 07:44:52;;;;;;;1.00;1.00;;;;;;;17.21;83.23;102538.56;5067637;28;20036;-77
2022/07/11 07:47:17;;;;;;;1.88;1.08;;;;;;;17.22;83.28;102540.25;5051023;28;20040;-78
2022/07/11 07:49:42;;;;;;;2.28;1.02;;;;;;;17.23;83.32;102534.06;5073376;28;20032;-77
2022/07/11 07:52:08;;;;;;;1.38;1.10;;;;;;;17.26;83.45;102533.06;5068332;28;20040;-78
2022/07/11 07:54:33;;;;;;;1.85;1.00;;;;;;;17.28;83.13;102533.84;5026821;28;20412;-78
2022/07/11 07:56:59;;;;;;;1.45;1.10;;;;;;;17.29;83.25;102532.94;5047039;28;20119;-78
2022/07/11 07:59:24;;;;;;;1.35;1.25;;;;;;;17.30;83.11;102525.84;5075365;28;20083;-78
2022/07/11 08:01:51;;;;;;;1.70;1.20;;;;;;;17.30;83.17;102528.50;5065299;28;20040;-78
2022/07/11 08:04:17;;;;;;;1.52;1.20;;;;;;;17.31;83.32;102532.88;5067552;28;20099;-78
2022/07/11 08:06:43;;;;;;;1.60;1.05;;;;;;;17.32;83.09;102537.22;5074869;28;20067;-77
2022/07/11 08:09:08;;;;;;;3.03;1.50;;;;;;;17.33;83.71;102537.16;5068031;28;20036;-78
2022/07/11 08:11:35;;;;;;;2.55;1.40;;;;;;;17.35;83.28;102535.31;5068585;28;20044;-78
2022/07/11 08:14:01;;;;;;;3.88;1.48;;;;;;;17.36;83.34;102542.34;5045254;28;20343;-78
2022/07/11 08:16:28;;;;;;;4.60;1.90;;;;;;;17.35;83.67;102537.94;5072257;28;20044;-78
2022/07/11 08:18:55;;;;;;;2.83;1.67;;;;;;;17.38;83.48;102544.94;5064286;28;20044;-78
2022/07/11 08:21:21;;;;;;;2.35;1.45;;;;;;;17.38;83.65;102542.28;5053782;28;20338;-78
2022/07/11 08:23:47;;;;;;;1.40;1.30;;;;;;;17.40;83.68;102543.94;5055455;28;20071;-77
2022/07/11 08:26:12;;;;;;;1.67;1.48;;;;;;;17.41;83.64;102534.22;5037528;28;20029;-78
2022/07/11 08:28:37;;;;;;;1.75;1.65;;;;;;;17.43;83.59;102537.66;5076842;28;20541;-78
2022/07/11 08:31:03;;;;;;;2.03;1.60;;;;;;;17.42;83.29;102542.06;5074976;28;20097;-78
2022/07/11 08:33:28;;;;;;;2.13;1.20;;;;;;;17.43;83.46;102549.09;5075171;28;20044;-78
2022/07/11 08:35:54;;;;;;;1.50;1.20;;;;;;;17.46;83.49;102541.03;5039993;28;20040;-78
2022/07/11 08:38:19;;;;;;;1.17;1.08;;;;;;;17.49;83.34;102549.78;5060550;28;20324;-78
2022/07/11 08:40:44;;;;;;;2.33;1.00;;;;;;;17.50;82.98;102546.19;5059534;28;20120;-78
2022/07/11 08:43:15;;;;;;;2.20;0.98;;;;;;;17.51;83.02;102548.75;5047816;28;20047;-78
2022/07/11 08:45:41;;;;;;;1.63;1.00;;;;;;;17.50;82.61;102549.72;5058793;28;20055;-78
2022/07/11 08:48:07;;;;;;;1.08;0.98;;;;;;;17.49;82.66;102541.81;5040724;28;20065;-78
2022/07/11 08:50:32;;;;;;;4.93;1.45;;;;;;;17.49;82.88;102552.41;5060170;28;20100;-78
2022/07/11 08:52:58;;;;;;;1.95;1.20;;;;;;;17.49;82.62;102547.97;5077151;28;20036;-78
2022/07/11 08:55:24;;;;;;;1.33;1.10;;;;;;;17.50;82.92;102539.13;5077366;28;20107;-78
2022/07/11 08:57:50;;;;;;;1.45;1.00;;;;;;;17.53;82.93;102538.09;5074739;28;20029;-78
2022/07/11 09:00:16;;;;;;;1.23;1.00;;;;;;;17.56;82.79;102538.84;5075229;28;20384;-78
2022/07/11 09:02:42;;;;;;;2.97;1.27;;;;;;;17.59;83.06;102544.00;5059601;28;20104;-78
2022/07/11 09:05:08;;;;;;;1.13;1.02;;;;;;;17.62;82.64;102532.41;5043262;28;20016;-78
2022/07/11 09:07:41;;;;;;;1.55;0.88;;;;;;;17.67;82.56;102535.72;5057948;28;20082;-78
2022/07/11 09:10:07;;;;;;;0.93;0.82;;;;;;;17.70;82.25;102535.59;5077299;28;20050;-77
2022/07/11 09:12:32;;;;;;;1.40;1.25;;;;;;;17.72;82.17;102533.75;5060212;28;20270;-78
2022/07/11 09:14:59;;;;;;;2.10;1.17;;;;;;;17.75;82.18;102532.72;5074737;28;20041;-78
2022/07/11 09:17:27;;;;;;;1.92;0.90;;;;;;;17.79;82.18;102535.19;5075201;28;20339;-78
2022/07/11 09:19:52;;;;;;;1.27;1.17;;;;;;;17.81;82.11;102548.38;5074199;28;20028;-78
2022/07/11 09:28:05;;;;;;;2.78;1.60;;;;;;;17.82;82.34;102529.72;4960109;28;20429;-78
2022/07/11 09:30:35;;;;;;;2.30;1.92;;;;;;;17.83;82.53;102536.78;5051729;28;20056;-78
2022/07/11 09:33:03;;;;;;;3.17;1.70;;;;;;;17.87;82.36;102536.69;5075320;28;20033;-78
2022/07/11 09:35:39;;;;;;;1.90;1.80;;;;;;;17.89;82.07;102535.66;5070516;28;20100;-78
2022/07/11 09:38:06;;;;;;;2.22;1.67;;;;;;;17.90;81.89;102529.44;5051779;28;20673;-78
2022/07/11 09:40:32;;;;;;;2.65;1.83;;;;;;;17.93;81.95;102536.38;5077067;28;20055;-77
2022/07/11 09:42:59;;;;;;;1.80;1.70;;;;;;;17.96;81.89;102537.13;5072539;28;20401;-78
2022/07/11 09:45:27;;;;;;;1.40;1.30;;;;;;;17.98;82.02;102537.91;5057694;28;20335;-78
2022/07/11 09:47:55;;;;;;;5.05;1.88;;;;;;;18.01;81.83;102542.22;5074701;28;20263;-78
2022/07/11 09:50:26;;;;;;;1.88;1.70;;;;;;;18.03;81.67;102545.66;5074706;28;20062;-78
2022/07/11 09:53:00;;;;;;;4.05;1.70;;;;;;;18.05;81.34;102546.44;5070779;28;20100;-78
2022/07/11 09:55:26;;;;;;;1.75;1.55;;;;;;;18.10;81.30;102546.22;5058182;28;20032;-78
2022/07/11 09:57:52;;;;;;;3.00;1.58;;;;;;;18.11;81.20;102545.31;5069907;28;20231;-78
2022/07/11 10:00:18;;;;;;;2.83;2.15;;;;;;;18.13;81.17;102540.78;5072291;28;20044;-78
2022/07/11 10:02:44;;;;;;;4.90;1.98;;;;;;;18.15;80.80;102541.56;5083475;28;20274;-78
2022/07/11 10:05:10;;;;;;;2.03;1.83;;;;;;;18.16;80.51;102549.47;5073458;28;20063;-78
2022/07/11 10:07:36;;;;;;;2.80;2.30;;;;;;;18.15;80.24;102542.44;5051936;28;20105;-78
2022/07/11 10:10:04;;;;;;;2.28;1.92;;;;;;;18.17;79.80;102545.00;5053283;28;20228;-78
2022/07/11 10:12:31;;;;;;;1.63;1.52;;;;;;;18.19;79.69;102532.53;5072299;28;20300;-78
2022/07/11 10:15:01;;;;;;;2.58;1.70;;;;;;;18.24;79.35;102533.19;5053923;28;20055;-78
2022/07/11 10:17:26;;;;;;;1.88;1.70;;;;;;;18.29;78.92;102533.00;5055341;28;20029;-78
2022/07/11 10:20:11;;;;;;;2.83;1.95;;;;;;;18.29;78.13;102533.84;5042413;28;20036;-77
2022/07/11 10:22:57;;;;;;;3.83;2.67;;;;;;;18.30;77.88;102526.75;5059718;28;20037;-78
2022/07/11 10:25:45;;;;;;;2.75;2.55;;;;;;;18.36;78.22;102529.13;5050949;28;20036;-78
2022/07/11 10:28:26;;;;;;;5.78;2.58;;;;;;;18.45;78.11;102527.84;5050013;28;20033;-78
2022/07/11 10:30:59;;;;;;;2.75;2.17;;;;;;;18.49;78.00;102526.75;5050746;28;20232;-78
2022/07/11 10:33:25;;;;;;;2.38;2.13;;;;;;;18.51;77.58;102533.69;5036069;28;20037;-78
2022/07/11 10:35:52;;;;;;;1.70;1.60;;;;;;;18.53;77.69;102537.13;5054969;28;20276;-77
2022/07/11 10:38:18;;;;;;;2.63;1.90;;;;;;;18.56;77.61;102531.69;5051468;28;20019;-78
2022/07/11 10:40:51;;;;;;;2.88;1.90;;;;;;;18.58;77.25;102528.97;5060975;28;20040;-77
2022/07/11 10:43:39;;;;;;;2.15;2.03;;;;;;;18.64;77.63;102528.66;5052980;28;20177;-78
2022/07/11 10:46:11;;;;;;;1.92;1.83;;;;;;;18.70;77.88;102540.78;5058377;28;20029;-78
2022/07/11 10:48:51;;;;;;;1.50;1.40;;;;;;;18.75;77.38;102536.97;5054805;28;20064;-77
2022/07/11 10:51:19;;;;;;;1.88;1.77;;;;;;;18.82;77.06;102540.22;5057345;28;20063;-77
2022/07/11 10:53:47;;;;;;;3.28;1.90;;;;;;;18.83;76.09;102538.41;5049778;28;20025;-77
2022/07/11 10:56:36;;;;;;;2.60;1.90;;;;;;;18.85;75.80;102534.78;5064244;28;20017;-78
2022/07/11 10:59:13;;;;;;;2.22;1.85;;;;;;;18.88;76.08;102534.63;5068145;28;20055;-77
2022/07/11 11:02:02;;;;;;;2.30;2.10;;;;;;;18.94;76.34;102520.19;5053028;28;20294;-78
2022/07/11 11:04:44;;;;;;;;;;;;;;;18.96;76.19;102520.97;5048471;28;20053;-78
2022/07/11 11:07:32;;;;;;;3.70;2.78;;;;;;;19.04;75.59;102523.25;5065249;28;20067;-78
2022/07/11 11:09:58;;;;;;;3.47;2.72;;;;;;;19.08;75.61;102516.84;5045983;28;20021;-78
2022/07/11 11:13:05;;;;;;;3.60;3.10;;;;;;;19.15;75.39;102518.25;5062259;28;20286;-78
2022/07/11 11:15:42;;;;;;;3.22;2.92;;;;;;;19.21;75.39;102517.97;5063873;28;20042;-77
2022/07/11 11:18:23;;;;;;;3.08;2.88;;;;;;;19.27;75.53;102528.25;5066380;28;20219;-78
2022/07/11 11:20:57;;;;;;;3.72;3.40;;;;;;;19.30;75.62;102514.84;5061108;28;20041;-77
2022/07/11 11:23:24;;;;;;;3.72;3.42;;;;;;;19.36;75.27;102521.63;5060467;28;20342;-78
2022/07/11 11:25:50;;;;;;;3.38;3.17;;;;;;;19.43;75.34;102519.50;5052558;28;20451;-79
2022/07/11 11:28:20;;;;;;;4.45;4.05;;;;;;;19.45;74.39;102514.97;5064734;28;20322;-77
2022/07/11 11:31:00;;;;;;;4.43;4.03;;;;;;;19.46;73.87;102520.19;5061603;28;20039;-77